createdAt,value
2018-09-21T00:00:09.255Z,5.27
2018-09-21T00:02:37.739Z,5.43
2018-09-21T00:05:06.234Z,4.50
2018-09-21T00:07:34.687Z,4.20
2018-09-21T00:10:03.106Z,4.27
2018-09-21T00:12:31.515Z,4.37
2018-09-21T00:14:59.909Z,4.37
2018-09-21T00:17:28.331Z,4.60
2018-09-21T00:19:56.952Z,4.60
2018-09-21T00:22:25.427Z,4.30
2018-09-21T00:24:53.871Z,4.80
2018-09-21T00:27:22.264Z,4.70
2018-09-21T00:29:50.654Z,5.17
2018-09-21T00:32:19.061Z,4.67
2018-09-21T00:34:47.462Z,4.40
2018-09-21T00:37:15.830Z,4.73
2018-09-21T00:39:44.577Z,4.83
2018-09-21T00:42:12.959Z,5.03
2018-09-21T00:44:41.372Z,5.03
2018-09-21T00:47:09.781Z,5.30
2018-09-21T00:49:38.323Z,5.10
2018-09-21T00:52:06.909Z,5.03
2018-09-21T00:54:35.547Z,4.77
2018-09-21T00:57:03.939Z,4.90
2018-09-21T00:59:32.332Z,5.27
2018-09-21T01:02:00.723Z,4.50
2018-09-21T01:04:33.435Z,4.40
2018-09-21T01:07:01.851Z,4.57
2018-09-21T01:09:30.248Z,5.27
2018-09-21T01:11:58.647Z,4.63
2018-09-21T01:14:27.052Z,4.60
2018-09-21T01:16:55.434Z,4.50
2018-09-21T01:19:23.815Z,4.83
2018-09-21T01:21:52.226Z,5.23
2018-09-21T01:24:20.611Z,4.70
2018-09-21T01:26:49.032Z,4.43
2018-09-21T01:29:17.438Z,4.70
2018-09-21T01:31:45.827Z,4.73
2018-09-21T01:34:14.415Z,4.97
2018-09-21T01:36:42.812Z,4.93
2018-09-21T01:39:11.579Z,4.97
2018-09-21T01:41:40.200Z,6.00
2018-09-21T01:44:09.199Z,5.17
2018-09-21T01:46:37.692Z,5.13
2018-09-21T01:49:06.090Z,4.50
2018-09-21T01:51:34.506Z,4.60
2018-09-21T01:54:02.892Z,4.87
2018-09-21T01:56:31.268Z,5.43
2018-09-21T01:58:59.655Z,4.70
2018-09-21T02:01:28.034Z,5.13
2018-09-21T02:03:56.648Z,4.97
2018-09-21T02:06:25.349Z,5.67
2018-09-21T02:08:54.040Z,4.97
2018-09-21T02:11:22.747Z,5.63
2018-09-21T02:13:51.243Z,5.60
2018-09-21T02:16:19.619Z,5.13
2018-09-21T02:18:48.221Z,4.83
2018-09-21T02:21:16.706Z,5.33
2018-09-21T02:23:45.620Z,5.07
2018-09-21T02:26:14.319Z,5.30
2018-09-21T02:28:44.328Z,4.83
2018-09-21T02:31:12.716Z,5.37
2018-09-21T02:33:41.352Z,5.17
2018-09-21T02:36:09.864Z,5.33
2018-09-21T02:38:38.250Z,5.10
2018-09-21T02:41:06.629Z,5.10
2018-09-21T02:43:35.027Z,4.53
2018-09-21T02:46:03.404Z,5.30
2018-09-21T02:48:31.786Z,5.00
2018-09-21T02:51:00.172Z,5.03
2018-09-21T02:53:28.559Z,5.27
2018-09-21T02:55:56.951Z,4.77
2018-09-21T02:58:25.341Z,5.07
2018-09-21T03:00:53.856Z,4.63
2018-09-21T03:03:22.120Z,5.20
2018-09-21T03:05:50.514Z,4.77
2018-09-21T03:08:18.887Z,4.83
2018-09-21T03:10:47.284Z,5.10
2018-09-21T03:13:15.736Z,4.60
2018-09-21T03:15:44.300Z,4.93
2018-09-21T03:18:13.001Z,4.83
2018-09-21T03:20:41.488Z,4.77
2018-09-21T03:23:09.858Z,5.20
2018-09-21T03:25:38.255Z,5.23
2018-09-21T03:28:06.655Z,4.67
2018-09-21T03:30:35.044Z,4.67
2018-09-21T03:33:03.460Z,5.07
2018-09-21T03:35:31.850Z,4.90
2018-09-21T03:38:00.244Z,4.70
2018-09-21T03:40:28.659Z,4.77
2018-09-21T03:42:57.395Z,4.93
2018-09-21T03:45:25.939Z,5.27
2018-09-21T03:47:54.556Z,4.97
2018-09-21T03:50:23.046Z,5.00
2018-09-21T03:52:51.430Z,4.90
2018-09-21T03:55:19.855Z,4.60
2018-09-21T03:57:48.492Z,5.33
2018-09-21T04:00:16.966Z,5.00
2018-09-21T04:02:45.336Z,5.00
2018-09-21T04:05:13.730Z,5.07
2018-09-21T04:07:57.032Z,4.67
2018-09-21T04:10:25.518Z,5.47
2018-09-21T04:12:53.923Z,4.93
2018-09-21T04:15:22.339Z,4.73
2018-09-21T04:17:50.951Z,5.27
2018-09-21T04:20:19.419Z,4.97
2018-09-21T04:22:52.281Z,5.03
2018-09-21T04:25:20.646Z,5.00
2018-09-21T04:27:49.056Z,4.70
2018-09-21T04:30:17.458Z,4.90
2018-09-21T04:32:45.844Z,4.73
2018-09-21T04:35:14.237Z,4.70
2018-09-21T04:37:42.707Z,4.40
2018-09-21T04:40:11.306Z,4.73
2018-09-21T04:42:39.995Z,4.83
2018-09-21T04:45:08.944Z,4.97
2018-09-21T04:47:37.420Z,5.17
2018-09-21T04:50:05.790Z,5.30
2018-09-21T04:52:34.221Z,4.93
2018-09-21T04:55:02.588Z,4.97
2018-09-21T04:57:30.963Z,4.77
2018-09-21T04:59:59.376Z,5.17
2018-09-21T05:02:27.783Z,4.73
2018-09-21T05:04:56.163Z,5.50
2018-09-21T05:07:24.571Z,5.27
2018-09-21T05:09:52.979Z,4.90
2018-09-21T05:12:21.359Z,5.00
2018-09-21T05:14:49.766Z,5.53
2018-09-21T05:17:18.143Z,5.07
2018-09-21T05:19:46.801Z,5.33
2018-09-21T05:22:15.464Z,5.37
2018-09-21T05:24:43.926Z,5.60
2018-09-21T05:27:12.311Z,5.67
2018-09-21T05:29:40.951Z,7.40
2018-09-21T05:32:09.336Z,5.40
2018-09-21T05:34:37.853Z,5.17
2018-09-21T05:37:06.167Z,5.87
2018-09-21T05:39:34.542Z,5.30
2018-09-21T05:42:02.924Z,5.47
2018-09-21T05:44:31.310Z,5.60
2018-09-21T05:46:59.738Z,5.23
2018-09-21T05:49:28.313Z,5.43
2018-09-21T05:51:57.261Z,5.30
2018-09-21T05:54:25.744Z,5.63
2018-09-21T05:56:54.127Z,5.07
2018-09-21T05:59:22.800Z,5.20
2018-09-21T06:01:51.198Z,5.03
2018-09-21T06:04:19.561Z,5.67
2018-09-21T06:06:47.972Z,5.70
2018-09-21T06:09:16.353Z,5.20
2018-09-21T06:11:44.783Z,5.87
2018-09-21T06:14:13.397Z,5.77
2018-09-21T06:16:41.875Z,5.33
2018-09-21T06:19:10.253Z,5.43
2018-09-21T06:21:38.660Z,5.67
2018-09-21T06:24:07.050Z,5.60
2018-09-21T06:26:35.433Z,5.53
2018-09-21T06:29:03.842Z,5.83
2018-09-21T06:31:32.256Z,5.80
2018-09-21T06:34:00.854Z,5.93
2018-09-21T06:36:29.353Z,6.03
2018-09-21T06:38:57.738Z,5.30
2018-09-21T06:41:26.122Z,5.63
2018-09-21T06:43:54.748Z,5.87
2018-09-21T06:46:23.203Z,5.97
2018-09-21T06:48:51.575Z,5.30
2018-09-21T06:51:20.027Z,5.63
2018-09-21T06:53:48.614Z,5.43
2018-09-21T06:56:17.309Z,5.90
2018-09-21T06:58:45.796Z,6.00
2018-09-21T07:01:14.198Z,5.63
2018-09-21T07:03:42.580Z,5.60
2018-09-21T07:06:11.194Z,6.23
2018-09-21T07:08:39.670Z,5.77
2018-09-21T07:11:08.047Z,5.60
2018-09-21T07:13:36.672Z,5.30
2018-09-21T07:16:05.105Z,7.97
2018-09-21T07:18:33.507Z,5.23
2018-09-21T07:21:01.899Z,5.40
2018-09-21T07:23:30.287Z,5.33
2018-09-21T07:25:58.900Z,6.13
2018-09-21T07:28:27.604Z,5.60
2018-09-21T07:30:56.359Z,5.37
2018-09-21T07:33:24.779Z,5.43
2018-09-21T07:35:53.194Z,5.40
2018-09-21T07:38:21.605Z,6.03
2018-09-21T07:40:50.000Z,4.90
2018-09-21T07:43:18.511Z,5.60
2018-09-21T07:45:46.894Z,5.37
2018-09-21T07:48:15.496Z,5.60
2018-09-21T07:50:44.006Z,5.57
2018-09-21T07:53:12.612Z,5.53
2018-09-21T07:55:41.106Z,5.20
2018-09-21T07:58:09.523Z,5.60
2018-09-21T08:00:37.902Z,5.63
2018-09-21T08:03:06.280Z,5.87
2018-09-21T08:05:35.186Z,5.43
2018-09-21T08:08:04.902Z,5.10
2018-09-21T08:10:33.298Z,5.53
2018-09-21T08:13:02.009Z,5.30
2018-09-21T08:15:30.764Z,5.53
2018-09-21T08:17:59.167Z,5.10
2018-09-21T08:20:28.175Z,5.63
2018-09-21T08:22:56.640Z,5.37
2018-09-21T08:25:25.243Z,5.37
2018-09-21T08:27:54.028Z,5.43
2018-09-21T08:30:22.618Z,5.30
2018-09-21T08:32:51.056Z,7.30
2018-09-21T08:35:19.747Z,5.30
2018-09-21T08:37:48.127Z,5.10
2018-09-21T08:40:16.532Z,4.73
2018-09-21T08:42:45.170Z,4.83
2018-09-21T08:45:13.635Z,4.97
2018-09-21T08:47:42.012Z,4.97
2018-09-21T08:50:10.664Z,5.17
2018-09-21T08:52:39.186Z,4.50
2018-09-21T08:55:07.665Z,5.33
2018-09-21T08:57:36.278Z,4.95
2018-09-21T09:00:04.703Z,4.87
2018-09-21T09:02:33.082Z,4.60
2018-09-21T09:05:02.973Z,5.30
2018-09-21T09:07:31.434Z,5.45
2018-09-21T09:09:59.815Z,4.90
2018-09-21T09:12:28.228Z,4.85
2018-09-21T09:14:56.635Z,4.45
2018-09-21T09:17:25.239Z,4.60
2018-09-21T09:19:53.987Z,4.75
2018-09-21T09:22:22.597Z,4.72
2018-09-21T09:24:51.325Z,5.03
2018-09-21T09:27:19.776Z,4.97
2018-09-21T09:29:48.161Z,4.70
2018-09-21T09:32:16.547Z,4.90
2018-09-21T09:34:45.171Z,5.07
2018-09-21T09:37:13.769Z,4.87
2018-09-21T09:39:42.152Z,4.83
2018-09-21T09:42:10.552Z,4.85
2018-09-21T09:44:39.176Z,4.78
2018-09-21T09:47:07.651Z,4.80
2018-09-21T09:49:36.054Z,5.87
2018-09-21T09:52:04.437Z,5.43
2018-09-21T09:54:32.816Z,5.08
2018-09-21T09:57:01.528Z,4.40
2018-09-21T09:59:30.013Z,5.12
2018-09-21T10:01:58.402Z,4.70
2018-09-21T10:04:26.851Z,4.78
2018-09-21T10:06:55.227Z,4.53
2018-09-21T10:09:23.607Z,5.17
2018-09-21T10:11:52.247Z,4.72
2018-09-21T10:14:20.651Z,4.62
2018-09-21T10:16:49.256Z,4.40
2018-09-21T10:19:17.743Z,4.22
2018-09-21T10:21:46.128Z,5.47
2018-09-21T10:24:14.516Z,4.53
2018-09-21T10:26:43.148Z,4.10
2018-09-21T10:29:11.613Z,3.87
2018-09-21T10:31:40.013Z,9.80
2018-09-21T10:34:08.416Z,3.60
2018-09-21T10:36:37.021Z,3.47
2018-09-21T10:39:06.491Z,3.90
2018-09-21T10:41:35.260Z,3.53
2018-09-21T10:44:03.735Z,3.70
2018-09-21T10:46:32.113Z,3.73
2018-09-21T10:49:00.735Z,3.10
2018-09-21T10:51:29.418Z,3.37
2018-09-21T10:53:57.890Z,3.20
2018-09-21T10:56:26.514Z,3.90
2018-09-21T10:58:55.199Z,3.67
2018-09-21T11:01:23.686Z,3.30
2018-09-21T11:03:52.311Z,3.70
2018-09-21T11:06:20.692Z,3.17
2018-09-21T11:08:49.070Z,2.73
2018-09-21T11:11:17.559Z,2.80
2018-09-21T11:13:45.934Z,2.40
2018-09-21T11:16:14.602Z,2.30
2018-09-21T11:18:43.094Z,2.60
2018-09-21T11:21:11.486Z,2.03
2018-09-21T11:23:39.866Z,9.20
2018-09-21T11:26:08.514Z,3.63
2018-09-21T11:28:36.916Z,4.03
2018-09-21T11:31:05.529Z,2.77
2018-09-21T11:33:34.013Z,2.47
2018-09-21T11:36:02.387Z,3.03
2018-09-21T11:38:30.768Z,3.03
2018-09-21T11:40:59.205Z,3.80
2018-09-21T11:43:27.574Z,2.80
2018-09-21T11:45:55.954Z,2.97
2018-09-21T11:48:24.407Z,6.93
2018-09-21T11:50:52.791Z,3.00
2018-09-21T11:53:21.157Z,3.17
2018-09-21T11:55:49.764Z,2.50
2018-09-21T11:58:18.461Z,2.53
2018-09-21T12:00:47.156Z,2.70
2018-09-21T12:03:15.680Z,2.57
2018-09-21T12:05:44.062Z,2.97
2018-09-21T12:08:12.439Z,2.43
2018-09-21T12:10:41.064Z,2.60
2018-09-21T12:13:09.756Z,2.90
2018-09-21T12:15:38.444Z,4.30
2018-09-21T12:18:06.955Z,3.00
2018-09-21T12:20:35.337Z,3.10
2018-09-21T12:23:03.717Z,3.20
2018-09-21T12:25:32.124Z,3.00
2018-09-21T12:28:00.508Z,3.60
2018-09-21T12:30:28.912Z,3.13
2018-09-21T12:32:57.506Z,2.83
2018-09-21T12:35:25.979Z,2.83
2018-09-21T12:37:54.576Z,3.50
2018-09-21T12:40:23.068Z,3.70
2018-09-21T12:42:51.466Z,3.43
2018-09-21T12:45:19.845Z,3.67
2018-09-21T12:47:48.472Z,3.73
2018-09-21T12:50:16.858Z,4.40
2018-09-21T12:52:45.239Z,4.47
2018-09-21T12:55:14.137Z,3.83
2018-09-21T12:57:42.661Z,4.20
2018-09-21T13:00:11.178Z,4.13
2018-09-21T13:02:39.956Z,4.03
2018-09-21T13:05:08.624Z,4.27
2018-09-21T13:07:37.344Z,7.23
2018-09-21T13:10:05.840Z,4.87
2018-09-21T13:12:34.235Z,3.93
2018-09-21T13:15:02.880Z,4.77
2018-09-21T13:17:31.284Z,4.43
2018-09-21T13:19:59.662Z,4.40
2018-09-21T13:22:28.067Z,4.63
2018-09-21T13:24:56.468Z,4.33
2018-09-21T13:27:25.068Z,4.10
2018-09-21T13:29:53.547Z,4.30
2018-09-21T13:32:22.018Z,4.37
2018-09-21T13:34:50.335Z,3.00
2018-09-21T13:37:18.923Z,3.17
2018-09-21T13:39:47.860Z,3.73
2018-09-21T13:42:16.332Z,3.07
2018-09-21T13:44:44.939Z,3.53
2018-09-21T13:47:14.240Z,3.47
2018-09-21T13:49:42.703Z,3.33
2018-09-21T13:52:11.288Z,4.37
2018-09-21T13:54:39.779Z,3.77
2018-09-21T13:57:08.163Z,3.20
2018-09-21T13:59:36.559Z,3.53
2018-09-21T14:02:05.493Z,3.37
2018-09-21T14:04:33.982Z,3.47
2018-09-21T14:07:02.579Z,3.20
2018-09-21T14:09:31.504Z,3.03
2018-09-21T14:11:59.997Z,3.53
2018-09-21T14:14:28.591Z,3.53
2018-09-21T14:16:57.279Z,2.97
2018-09-21T14:19:25.871Z,2.97
2018-09-21T14:21:54.363Z,3.43
2018-09-21T14:24:22.994Z,3.23
2018-09-21T14:26:51.371Z,2.83
2018-09-21T14:29:19.783Z,7.23
2018-09-21T14:31:48.770Z,3.27
2018-09-21T14:34:17.170Z,2.70
2018-09-21T14:36:45.531Z,2.93
2018-09-21T14:39:14.250Z,3.17
2018-09-21T14:41:42.637Z,2.30
2018-09-21T14:44:11.215Z,2.97
2018-09-21T14:46:39.949Z,3.13
2018-09-21T14:49:08.648Z,2.57
2018-09-21T14:51:37.125Z,2.83
2018-09-21T14:54:05.507Z,2.27
2018-09-21T14:56:33.891Z,2.27
2018-09-21T14:59:02.269Z,2.33
2018-09-21T15:01:30.750Z,2.17
2018-09-21T15:03:59.144Z,2.20
2018-09-21T15:06:27.745Z,1.90
2018-09-21T15:08:56.227Z,2.13
2018-09-21T15:11:31.042Z,2.10
2018-09-21T15:13:59.506Z,2.03
2018-09-21T15:16:27.898Z,1.90
2018-09-21T15:18:56.259Z,2.00
2018-09-21T15:21:24.687Z,2.37
2018-09-21T15:23:53.072Z,1.87
2018-09-21T15:26:21.703Z,1.83
2018-09-21T15:28:50.179Z,1.70
2018-09-21T15:31:18.555Z,1.90
2018-09-21T15:33:46.933Z,1.80
2018-09-21T15:36:15.548Z,2.00
2018-09-21T15:38:44.019Z,1.67
2018-09-21T15:41:12.443Z,1.77
2018-09-21T15:43:41.009Z,1.60
2018-09-21T15:46:09.238Z,1.80
2018-09-21T15:48:37.627Z,1.80
2018-09-21T15:51:06.568Z,1.67
2018-09-21T15:53:34.943Z,1.83
2018-09-21T15:56:03.394Z,2.00
2018-09-21T15:58:31.791Z,1.73
2018-09-21T16:01:00.163Z,1.93
2018-09-21T16:03:28.530Z,1.80
2018-09-21T16:05:56.975Z,1.80
2018-09-21T16:08:25.534Z,1.53
2018-09-21T16:10:53.998Z,1.77
2018-09-21T16:13:22.404Z,1.57
2018-09-21T16:15:50.782Z,1.93
2018-09-21T16:18:19.369Z,1.70
2018-09-21T16:20:47.859Z,1.53
2018-09-21T16:23:16.244Z,1.50
2018-09-21T16:25:44.627Z,1.80
2018-09-21T16:28:13.015Z,1.60
2018-09-21T16:30:41.408Z,1.60
2018-09-21T16:33:09.815Z,1.87
2018-09-21T16:35:38.439Z,1.70
2018-09-21T16:38:07.050Z,1.53
2018-09-21T16:40:35.811Z,1.70
2018-09-21T16:43:04.533Z,1.70
2018-09-21T16:45:33.744Z,1.77
2018-09-21T16:48:02.117Z,1.60
2018-09-21T16:50:30.531Z,1.40
2018-09-21T16:52:58.921Z,2.07
2018-09-21T16:55:27.302Z,1.20
2018-09-21T16:57:55.970Z,1.67
2018-09-21T17:00:24.387Z,1.63
2018-09-21T17:02:52.779Z,1.83
2018-09-21T17:05:21.182Z,2.30
2018-09-21T17:07:49.559Z,1.77
2018-09-21T17:10:17.939Z,1.63
2018-09-21T17:12:46.348Z,1.67
2018-09-21T17:15:14.937Z,1.40
2018-09-21T17:17:43.619Z,1.10
2018-09-21T17:20:12.168Z,1.50
2018-09-21T17:22:40.508Z,1.67
2018-09-21T17:25:09.427Z,1.80
2018-09-21T17:27:38.003Z,1.80
2018-09-21T17:30:06.387Z,1.60
2018-09-21T17:32:34.796Z,1.80
2018-09-21T17:35:03.231Z,1.70
2018-09-21T17:37:31.627Z,1.63
2018-09-21T17:39:59.979Z,1.80
2018-09-21T17:42:28.372Z,1.50
2018-09-21T17:44:56.780Z,1.67
2018-09-21T17:47:25.158Z,1.60
2018-09-21T17:49:53.567Z,1.53
2018-09-21T17:52:21.964Z,1.63
2018-09-21T17:54:50.441Z,1.80
2018-09-21T17:57:18.847Z,1.60
2018-09-21T17:59:47.311Z,1.73
2018-09-21T18:02:15.711Z,1.60
2018-09-21T18:04:44.114Z,1.93
2018-09-21T18:07:17.972Z,1.90
2018-09-21T18:09:46.483Z,1.60
2018-09-21T18:12:14.862Z,1.70
2018-09-21T18:14:43.510Z,1.37
2018-09-21T18:17:12.704Z,1.80
2018-09-21T18:19:41.567Z,1.90
2018-09-21T18:22:10.632Z,1.90
2018-09-21T18:24:39.080Z,1.60
2018-09-21T18:27:07.737Z,1.50
2018-09-21T18:29:36.230Z,1.80
2018-09-21T18:32:04.667Z,1.47
2018-09-21T18:34:33.129Z,1.93
2018-09-21T18:37:01.704Z,1.63
2018-09-21T18:39:30.281Z,2.00
2018-09-21T18:41:58.892Z,1.67
2018-09-21T18:44:27.586Z,1.77
2018-09-21T18:46:56.382Z,1.77
2018-09-21T18:49:24.822Z,2.20
2018-09-21T18:51:58.479Z,2.10
2018-09-21T18:54:26.898Z,1.90
2018-09-21T18:56:55.507Z,1.63
2018-09-21T18:59:24.248Z,2.03
2018-09-21T19:01:57.876Z,1.67
2018-09-21T19:04:26.591Z,1.70
2018-09-21T19:06:54.991Z,1.97
2018-09-21T19:09:23.370Z,1.97
2018-09-21T19:11:51.810Z,1.57
2018-09-21T19:14:20.182Z,1.73
2018-09-21T19:16:49.273Z,1.40
2018-09-21T19:19:18.163Z,2.00
2018-09-21T19:21:46.655Z,1.77
2018-09-21T19:24:15.034Z,1.67
2018-09-21T19:26:43.468Z,1.50
2018-09-21T19:29:12.099Z,1.87
2018-09-21T19:31:40.587Z,2.03
2018-09-21T19:34:09.010Z,1.40
2018-09-21T19:36:37.396Z,2.10
2018-09-21T19:39:07.655Z,1.63
2018-09-21T19:41:36.079Z,1.93
2018-09-21T19:44:04.463Z,1.93
2018-09-21T19:46:33.104Z,1.77
2018-09-21T19:49:01.785Z,1.77
2018-09-21T19:51:30.283Z,1.20
2018-09-21T19:53:58.675Z,1.60
2018-09-21T19:56:27.109Z,1.70
2018-09-21T19:58:55.474Z,1.67
2018-09-21T20:01:23.900Z,1.50
2018-09-21T20:03:52.310Z,1.37
2018-09-21T20:06:20.695Z,1.50
2018-09-21T20:08:49.296Z,1.23
2018-09-21T20:11:18.089Z,1.40
2018-09-21T20:13:46.472Z,1.30
2018-09-21T20:16:14.884Z,1.10
2018-09-21T20:18:43.288Z,1.13
2018-09-21T20:21:11.666Z,1.23
2018-09-21T20:23:40.055Z,1.33
2018-09-21T20:26:08.683Z,1.00
2018-09-21T20:28:37.333Z,1.10
2018-09-21T20:31:11.238Z,1.10
2018-09-21T20:33:39.847Z,1.13
2018-09-21T20:36:08.242Z,1.00
2018-09-21T20:38:36.902Z,1.10
2018-09-21T20:41:05.278Z,0.97
2018-09-21T20:43:33.669Z,0.70
2018-09-21T20:46:02.059Z,0.90
2018-09-21T20:48:30.448Z,0.87
2018-09-21T20:50:58.871Z,0.93
2018-09-21T20:53:27.483Z,1.00
2018-09-21T20:55:55.962Z,0.57
2018-09-21T20:58:24.351Z,0.80
2018-09-21T21:00:52.769Z,1.20
2018-09-21T21:03:21.157Z,1.30
2018-09-21T21:05:49.808Z,0.77
2018-09-21T21:08:18.442Z,0.60
2018-09-21T21:10:46.861Z,1.00
2018-09-21T21:13:15.297Z,0.73
2018-09-21T21:15:43.651Z,1.00
2018-09-21T21:18:12.045Z,0.90
2018-09-21T21:20:40.424Z,1.00
2018-09-21T21:23:08.811Z,0.77
2018-09-21T21:25:37.422Z,0.90
2018-09-21T21:28:06.000Z,0.90
2018-09-21T21:30:34.418Z,0.77
2018-09-21T21:33:02.808Z,0.90
2018-09-21T21:35:31.401Z,1.10
2018-09-21T21:38:00.107Z,0.80
2018-09-21T21:40:28.575Z,1.23
2018-09-21T21:42:56.959Z,1.10
2018-09-21T21:45:25.649Z,1.07
2018-09-21T21:47:54.055Z,5.23
2018-09-21T21:50:22.439Z,1.03
2018-09-21T21:52:51.073Z,1.00
2018-09-21T21:55:19.434Z,1.33
2018-09-21T21:57:47.798Z,1.37
2018-09-21T22:00:16.238Z,1.30
2018-09-21T22:02:44.627Z,1.13
2018-09-21T22:05:13.012Z,1.60
2018-09-21T22:07:41.635Z,0.90
2018-09-21T22:10:10.007Z,1.30
2018-09-21T22:12:44.195Z,0.93
2018-09-21T22:15:16.574Z,1.10
2018-09-21T22:17:45.246Z,1.07
2018-09-21T22:20:13.636Z,1.10
2018-09-21T22:22:42.049Z,0.97
2018-09-21T22:25:11.326Z,1.30
2018-09-21T22:27:40.077Z,0.93
2018-09-21T22:30:09.002Z,1.00
2018-09-21T22:32:38.049Z,1.20
2018-09-21T22:35:06.444Z,1.30
2018-09-21T22:37:34.816Z,0.90
2018-09-21T22:40:03.469Z,1.43
2018-09-21T22:42:31.847Z,1.00
2018-09-21T22:45:00.239Z,1.00
2018-09-21T22:47:28.895Z,1.00
2018-09-21T22:49:57.308Z,0.90
2018-09-21T22:52:25.914Z,0.80
2018-09-21T22:54:54.675Z,1.00
2018-09-21T22:57:23.285Z,1.17
2018-09-21T22:59:51.985Z,1.10
2018-09-21T23:02:20.483Z,1.03
2018-09-21T23:04:48.879Z,0.70
2018-09-21T23:07:17.258Z,1.10
2018-09-21T23:09:45.881Z,0.80
2018-09-21T23:12:14.342Z,1.00
2018-09-21T23:14:42.763Z,1.20
2018-09-21T23:17:11.414Z,0.80
2018-09-21T23:19:39.786Z,1.13
2018-09-21T23:22:08.167Z,1.07
2018-09-21T23:24:36.565Z,1.27
2018-09-21T23:27:04.938Z,1.20
2018-09-21T23:29:33.548Z,1.30
2018-09-21T23:32:02.267Z,0.83
2018-09-21T23:34:30.967Z,1.20
2018-09-21T23:36:59.694Z,1.03
2018-09-21T23:39:28.139Z,1.10
2018-09-21T23:41:56.511Z,1.13
2018-09-21T23:44:24.886Z,1.20
2018-09-21T23:46:53.500Z,1.10
2018-09-21T23:49:22.197Z,1.10
2018-09-21T23:51:50.888Z,1.10
2018-09-21T23:54:19.605Z,1.23
2018-09-21T23:56:48.295Z,1.27
2018-09-21T23:59:16.989Z,1.30
